createdAt,value
2022-07-30T00:01:13.586Z,19.37
2022-07-30T00:02:53.279Z,19.34
2022-07-30T00:04:33.038Z,19.33
2022-07-30T00:06:12.805Z,19.29
2022-07-30T00:09:32.330Z,19.23
2022-07-30T00:11:12.087Z,19.23
2022-07-30T00:12:51.856Z,19.21
2022-07-30T00:14:31.626Z,19.2
2022-07-30T00:16:11.380Z,19.16
2022-07-30T00:19:30.912Z,19.14
2022-07-30T00:22:50.430Z,19.1
2022-07-30T00:24:30.192Z,19.09
2022-07-30T00:26:09.960Z,19.07
2022-07-30T00:27:49.716Z,19.06
2022-07-30T00:31:09.262Z,19.02
2022-07-30T00:32:49.023Z,19.01
2022-07-30T00:34:28.773Z,18.99
2022-07-30T00:36:08.552Z,18.95
2022-07-30T00:39:28.080Z,18.91
2022-07-30T00:41:07.844Z,18.89
2022-07-30T00:42:47.601Z,18.87
2022-07-30T00:44:27.366Z,18.86
2022-07-30T00:46:07.143Z,18.83
2022-07-30T00:47:46.903Z,18.82
2022-07-30T00:49:26.659Z,18.79
2022-07-30T00:51:06.426Z,18.78
2022-07-30T00:52:46.182Z,18.76
2022-07-30T00:56:05.711Z,18.71
2022-07-30T00:59:25.252Z,18.67
2022-07-30T01:01:05.007Z,18.66
2022-07-30T01:02:44.782Z,18.62
2022-07-30T01:04:24.547Z,18.6
2022-07-30T01:06:04.309Z,18.58
2022-07-30T01:07:44.057Z,18.54
2022-07-30T01:09:23.829Z,18.53
2022-07-30T01:11:03.606Z,18.51
2022-07-30T01:12:43.357Z,18.5
2022-07-30T01:14:23.129Z,18.45
2022-07-30T01:16:02.881Z,18.45
2022-07-30T01:19:22.416Z,18.42
2022-07-30T01:21:02.170Z,18.41
2022-07-30T01:22:41.938Z,18.41
2022-07-30T01:24:21.712Z,18.37
2022-07-30T01:26:01.473Z,18.37
2022-07-30T01:27:41.225Z,18.36
2022-07-30T01:29:21.000Z,18.35
2022-07-30T01:31:00.755Z,18.34
2022-07-30T01:32:40.530Z,18.33
2022-07-30T01:34:20.303Z,18.31
2022-07-30T01:36:00.085Z,18.29
2022-07-30T01:39:19.590Z,18.27
2022-07-30T01:40:59.361Z,18.25
2022-07-30T01:44:18.884Z,18.23
2022-07-30T01:45:58.640Z,18.2
2022-07-30T01:47:38.400Z,18.2
2022-07-30T01:49:18.179Z,18.17
2022-07-30T01:52:37.698Z,18.15
2022-07-30T01:54:17.447Z,18.12
2022-07-30T01:55:57.232Z,18.1
2022-07-30T01:59:16.741Z,18.07
2022-07-30T02:00:56.519Z,18.07
2022-07-30T02:02:36.274Z,18.04
2022-07-30T02:04:16.036Z,18.02
2022-07-30T02:05:55.810Z,18.03
2022-07-30T02:07:35.584Z,18.02
2022-07-30T02:09:15.339Z,18
2022-07-30T02:10:55.100Z,17.96
2022-07-30T02:12:34.883Z,17.95
2022-07-30T02:14:14.617Z,17.95
2022-07-30T02:15:54.404Z,17.92
2022-07-30T02:17:34.162Z,17.92
2022-07-30T02:19:13.935Z,17.92
2022-07-30T02:20:53.672Z,17.87
2022-07-30T02:22:33.443Z,17.87
2022-07-30T02:24:13.214Z,17.86
2022-07-30T02:25:52.967Z,17.84
2022-07-30T02:29:12.500Z,17.79
2022-07-30T02:30:52.266Z,17.79
2022-07-30T02:32:32.036Z,17.77
2022-07-30T02:34:11.797Z,17.77
2022-07-30T02:35:51.546Z,17.74
2022-07-30T02:39:11.077Z,17.71
2022-07-30T02:40:50.854Z,17.7
2022-07-30T02:42:30.612Z,17.69
2022-07-30T02:44:10.383Z,17.69
2022-07-30T02:45:50.146Z,17.65
2022-07-30T02:49:09.662Z,17.64
2022-07-30T02:50:49.431Z,17.66
2022-07-30T02:52:29.198Z,17.6
2022-07-30T02:54:08.974Z,17.6
2022-07-30T02:55:48.733Z,17.58
2022-07-30T02:59:08.262Z,17.52
2022-07-30T03:00:48.016Z,17.53
2022-07-30T03:02:27.784Z,17.49
2022-07-30T03:04:07.546Z,17.49
2022-07-30T03:05:47.310Z,17.45
2022-07-30T03:09:06.840Z,17.43
2022-07-30T03:10:46.609Z,17.4
2022-07-30T03:12:26.390Z,17.37
2022-07-30T03:15:45.893Z,17.33
2022-07-30T03:19:05.430Z,17.29
2022-07-30T03:20:45.194Z,17.28
2022-07-30T03:22:24.957Z,17.26
2022-07-30T03:24:04.754Z,17.23
2022-07-30T03:25:44.500Z,17.21
2022-07-30T03:27:24.244Z,17.2
2022-07-30T03:29:03.998Z,17.23
2022-07-30T03:30:43.774Z,17.19
2022-07-30T03:32:23.536Z,17.17
2022-07-30T03:34:03.304Z,17.2
2022-07-30T03:35:43.065Z,17.2
2022-07-30T03:37:22.824Z,17.16
2022-07-30T03:39:02.583Z,17.16
2022-07-30T03:40:42.350Z,17.14
2022-07-30T03:42:22.135Z,17.16
2022-07-30T03:44:01.877Z,17.12
2022-07-30T03:45:41.648Z,17.15
2022-07-30T03:47:21.418Z,17.15
2022-07-30T03:49:01.175Z,17.16
2022-07-30T03:50:40.941Z,17.14
2022-07-30T03:52:20.727Z,17.16
2022-07-30T03:54:00.482Z,17.14
2022-07-30T03:55:40.227Z,17.12
2022-07-30T03:58:59.758Z,17.07
2022-07-30T04:00:39.540Z,17.07
2022-07-30T04:02:19.300Z,17.04
2022-07-30T04:03:59.072Z,17.02
2022-07-30T04:05:38.806Z,17.01
2022-07-30T04:07:18.576Z,17.02
2022-07-30T04:08:58.346Z,16.99
2022-07-30T04:10:38.100Z,16.98
2022-07-30T04:12:17.858Z,16.98
2022-07-30T04:13:57.646Z,16.96
2022-07-30T04:15:37.385Z,16.96
2022-07-30T04:18:56.914Z,16.95
2022-07-30T04:20:36.691Z,16.96
2022-07-30T04:22:16.456Z,16.95
2022-07-30T04:23:56.214Z,16.9
2022-07-30T04:25:35.974Z,16.95
2022-07-30T04:28:55.513Z,16.94
2022-07-30T04:30:35.266Z,16.95
2022-07-30T04:32:15.028Z,16.99
2022-07-30T04:33:54.800Z,16.96
2022-07-30T04:35:34.580Z,16.96
2022-07-30T04:38:54.107Z,16.95
2022-07-30T04:40:33.851Z,16.96
2022-07-30T04:42:13.616Z,16.99
2022-07-30T04:43:53.389Z,16.95
2022-07-30T04:45:33.137Z,16.96
2022-07-30T04:48:52.678Z,17.02
2022-07-30T04:50:32.441Z,16.98
2022-07-30T04:52:12.202Z,16.98
2022-07-30T04:53:51.968Z,16.96
2022-07-30T04:55:31.722Z,16.98
2022-07-30T04:58:51.259Z,17.02
2022-07-30T05:00:31.025Z,17.01
2022-07-30T05:02:10.801Z,17
2022-07-30T05:03:50.548Z,17.01
2022-07-30T05:05:30.322Z,17.01
2022-07-30T05:07:10.085Z,17.03
2022-07-30T05:08:49.836Z,17.04
2022-07-30T05:10:29.617Z,17
2022-07-30T05:12:09.367Z,17.03
2022-07-30T05:13:49.142Z,17.04
2022-07-30T05:15:28.902Z,17.04
2022-07-30T05:22:07.962Z,17.08
2022-07-30T05:23:47.731Z,17.09
2022-07-30T05:25:27.506Z,17.1
2022-07-30T05:28:47.029Z,17.14
2022-07-30T05:30:26.784Z,17.15
2022-07-30T05:32:06.547Z,17.18
2022-07-30T05:33:46.299Z,17.16
2022-07-30T05:35:26.085Z,17.2
2022-07-30T05:38:45.592Z,17.2
2022-07-30T05:40:25.372Z,17.24
2022-07-30T05:42:05.128Z,17.27
2022-07-30T05:43:44.907Z,17.29
2022-07-30T05:45:24.659Z,17.31
2022-07-30T05:47:04.425Z,17.33
2022-07-30T05:48:44.185Z,17.35
2022-07-30T05:50:23.947Z,17.37
2022-07-30T05:52:03.712Z,17.4
2022-07-30T05:53:43.493Z,17.44
2022-07-30T05:55:23.253Z,17.57
2022-07-30T05:58:42.780Z,17.54
2022-07-30T06:00:22.546Z,17.62
2022-07-30T06:02:02.314Z,17.64
2022-07-30T06:03:42.069Z,17.62
2022-07-30T06:05:21.823Z,17.62
2022-07-30T06:08:41.354Z,17.67
2022-07-30T06:10:21.137Z,17.7
2022-07-30T06:12:00.881Z,17.73
2022-07-30T06:13:40.653Z,17.75
2022-07-30T06:15:20.420Z,17.77
2022-07-30T06:18:39.947Z,17.81
2022-07-30T06:20:19.704Z,17.85
2022-07-30T06:21:59.473Z,17.84
2022-07-30T06:23:39.235Z,17.89
2022-07-30T06:25:19.021Z,17.93
2022-07-30T06:28:38.527Z,17.94
2022-07-30T06:30:18.293Z,18.03
2022-07-30T06:31:58.066Z,18.04
2022-07-30T06:33:37.826Z,18.08
2022-07-30T06:35:17.596Z,18.17
2022-07-30T06:36:57.348Z,18.14
2022-07-30T06:38:37.112Z,18.17
2022-07-30T06:40:16.884Z,18.2
2022-07-30T06:41:56.635Z,18.21
2022-07-30T06:43:36.427Z,18.25
2022-07-30T06:45:16.163Z,18.34
2022-07-30T06:46:55.930Z,18.36
2022-07-30T06:48:35.693Z,18.42
2022-07-30T06:50:15.463Z,18.45
2022-07-30T06:51:55.235Z,18.5
2022-07-30T06:53:34.999Z,18.61
2022-07-30T06:55:14.761Z,18.6
2022-07-30T06:56:54.532Z,18.64
2022-07-30T06:58:34.284Z,18.67
2022-07-30T07:00:14.053Z,18.7
2022-07-30T07:01:53.809Z,18.78
2022-07-30T07:03:33.566Z,18.82
2022-07-30T07:05:13.341Z,18.87
2022-07-30T07:06:53.120Z,18.91
2022-07-30T07:08:32.863Z,18.95
2022-07-30T07:10:12.651Z,19.01
2022-07-30T07:11:52.398Z,19.02
2022-07-30T07:15:11.925Z,19.15
2022-07-30T07:18:31.442Z,19.19
2022-07-30T07:20:11.220Z,19.2
2022-07-30T07:21:50.979Z,19.29
2022-07-30T07:23:30.736Z,19.33
2022-07-30T07:25:10.523Z,19.37
2022-07-30T07:26:50.287Z,19.37
2022-07-30T07:28:30.028Z,19.45
2022-07-30T07:30:09.812Z,19.48
2022-07-30T07:31:49.565Z,19.49
2022-07-30T07:33:29.322Z,19.52
2022-07-30T07:35:09.092Z,19.54
2022-07-30T07:36:48.856Z,19.56
2022-07-30T07:38:28.620Z,19.61
2022-07-30T07:40:08.430Z,19.65
2022-07-30T07:41:48.154Z,19.7
2022-07-30T07:43:27.906Z,19.77
2022-07-30T07:45:07.670Z,19.82
2022-07-30T07:46:47.448Z,19.87
2022-07-30T07:48:27.199Z,19.94
2022-07-30T07:50:06.973Z,20
2022-07-30T07:51:46.729Z,20.07
2022-07-30T07:53:26.492Z,20.11
2022-07-30T07:55:06.252Z,20.16
2022-07-30T07:56:46.018Z,20.23
2022-07-30T07:58:25.775Z,20.27
2022-07-30T08:00:05.556Z,20.32
2022-07-30T08:01:45.333Z,20.33
2022-07-30T08:03:25.068Z,20.37
2022-07-30T08:05:04.838Z,20.39
2022-07-30T08:08:24.369Z,20.49
2022-07-30T08:10:04.134Z,20.51
2022-07-30T08:11:43.892Z,20.56
2022-07-30T08:13:23.655Z,20.56
2022-07-30T08:15:03.418Z,20.59
2022-07-30T08:16:43.201Z,20.62
2022-07-30T08:18:22.962Z,20.67
2022-07-30T08:20:02.713Z,20.67
2022-07-30T08:21:42.474Z,20.69
2022-07-30T08:23:22.253Z,20.73
2022-07-30T08:25:02.022Z,20.76
2022-07-30T08:28:21.557Z,20.83
2022-07-30T08:30:01.313Z,20.85
2022-07-30T08:31:41.068Z,20.88
2022-07-30T08:33:20.829Z,20.92
2022-07-30T08:35:00.597Z,20.93
2022-07-30T08:38:20.126Z,21
2022-07-30T08:39:59.897Z,21.04
2022-07-30T08:41:39.662Z,21.07
2022-07-30T08:43:19.418Z,21.11
2022-07-30T08:44:59.177Z,21.14
2022-07-30T08:48:18.710Z,21.18
2022-07-30T08:49:58.484Z,21.21
2022-07-30T08:51:38.242Z,21.23
2022-07-30T08:53:18.007Z,21.28
2022-07-30T08:54:57.769Z,21.29
2022-07-30T08:56:37.531Z,21.31
2022-07-30T08:58:17.301Z,21.34
2022-07-30T08:59:57.055Z,21.37
2022-07-30T09:01:36.821Z,21.43
2022-07-30T09:03:16.589Z,21.46
2022-07-30T09:04:56.350Z,21.51
2022-07-30T09:08:15.872Z,21.61
2022-07-30T09:09:55.631Z,21.62
2022-07-30T09:11:35.392Z,21.68
2022-07-30T09:13:15.166Z,21.73
2022-07-30T09:14:54.935Z,21.77
2022-07-30T09:16:34.687Z,21.75
2022-07-30T09:18:14.474Z,21.79
2022-07-30T09:19:54.220Z,21.8
2022-07-30T09:21:33.988Z,21.81
2022-07-30T09:23:13.762Z,21.82
2022-07-30T09:24:53.517Z,21.87
2022-07-30T09:28:13.056Z,21.93
2022-07-30T09:29:52.816Z,21.99
2022-07-30T09:31:32.567Z,22
2022-07-30T09:33:12.340Z,22.05
2022-07-30T09:34:52.138Z,22.1
2022-07-30T09:38:11.632Z,22.11
2022-07-30T09:39:51.399Z,22.2
2022-07-30T09:41:31.157Z,22.19
2022-07-30T09:43:10.913Z,22.22
2022-07-30T09:44:50.688Z,22.25
2022-07-30T09:48:10.205Z,22.33
2022-07-30T09:49:49.992Z,22.36
2022-07-30T09:51:29.771Z,22.39
2022-07-30T09:53:09.554Z,22.46
2022-07-30T09:54:49.274Z,22.39
2022-07-30T09:58:08.817Z,22.39
2022-07-30T09:59:48.573Z,22.44
2022-07-30T10:01:28.329Z,22.47
2022-07-30T10:03:08.090Z,22.49
2022-07-30T10:04:47.851Z,22.49
2022-07-30T10:08:07.393Z,22.53
2022-07-30T10:09:47.154Z,22.52
2022-07-30T10:11:26.919Z,22.53
2022-07-30T10:13:06.697Z,22.53
2022-07-30T10:14:46.439Z,22.54
2022-07-30T10:18:06.002Z,22.57
2022-07-30T10:19:45.732Z,22.58
2022-07-30T10:21:25.515Z,22.66
2022-07-30T10:23:07.611Z,22.65
2022-07-30T10:24:45.037Z,22.68
2022-07-30T10:28:04.577Z,22.78
2022-07-30T10:29:44.311Z,22.82
2022-07-30T10:31:24.100Z,22.86
2022-07-30T10:33:03.848Z,22.89
2022-07-30T10:34:43.600Z,22.96
2022-07-30T10:38:03.176Z,23.1
2022-07-30T10:39:42.908Z,23.11
2022-07-30T10:41:22.677Z,23.15
2022-07-30T10:43:02.426Z,23.2
2022-07-30T10:48:01.753Z,23.29
2022-07-30T10:49:41.491Z,23.31
2022-07-30T10:51:21.250Z,23.33
2022-07-30T10:53:01.011Z,23.37
2022-07-30T10:54:40.793Z,23.39
2022-07-30T10:56:20.558Z,23.37
2022-07-30T10:58:00.321Z,23.36
2022-07-30T10:59:40.089Z,23.37
2022-07-30T11:01:19.867Z,23.36
2022-07-30T11:02:59.608Z,23.38
2022-07-30T11:04:39.410Z,23.4
2022-07-30T11:06:19.125Z,23.42
2022-07-30T11:07:58.920Z,23.47
2022-07-30T11:09:38.706Z,23.47
2022-07-30T11:11:18.423Z,23.51
2022-07-30T11:12:58.201Z,23.53
2022-07-30T11:14:37.966Z,23.58
2022-07-30T11:16:17.729Z,23.58
2022-07-30T11:17:57.493Z,23.6
2022-07-30T11:19:45.992Z,23.63
2022-07-30T11:21:17.015Z,23.64
2022-07-30T11:22:56.840Z,23.66
2022-07-30T11:24:36.529Z,23.7
2022-07-30T11:27:56.079Z,23.74
2022-07-30T11:29:35.833Z,23.75
2022-07-30T11:31:15.636Z,23.8
2022-07-30T11:32:55.394Z,23.81
2022-07-30T11:34:35.118Z,23.81
2022-07-30T11:37:54.672Z,23.8
2022-07-30T11:39:34.417Z,23.86
2022-07-30T11:41:14.178Z,23.86
2022-07-30T11:42:53.946Z,23.85
2022-07-30T11:44:33.696Z,23.88
2022-07-30T11:46:13.477Z,23.93
2022-07-30T11:47:53.232Z,24
2022-07-30T11:49:33.036Z,24.08
2022-07-30T11:51:12.766Z,24.2
2022-07-30T11:54:32.298Z,24.46
2022-07-30T11:56:12.059Z,24.5
2022-07-30T11:57:51.822Z,24.57
2022-07-30T11:59:31.590Z,24.65
2022-07-30T12:01:11.367Z,24.63
2022-07-30T12:02:51.115Z,24.64
2022-07-30T12:04:30.883Z,24.68
2022-07-30T12:06:10.649Z,24.69
2022-07-30T12:07:50.408Z,24.71
2022-07-30T12:09:30.179Z,24.78
2022-07-30T12:11:09.937Z,24.84
2022-07-30T12:12:49.697Z,24.95
2022-07-30T12:14:29.467Z,24.99
2022-07-30T12:17:48.997Z,25
2022-07-30T12:19:28.759Z,25.01
2022-07-30T12:21:08.521Z,25.03
2022-07-30T12:24:28.051Z,25.05
2022-07-30T12:27:47.584Z,25.17
2022-07-30T12:29:27.352Z,25.21
2022-07-30T12:31:07.107Z,25.21
2022-07-30T12:32:46.868Z,25.26
2022-07-30T12:34:26.627Z,25.28
2022-07-30T12:37:46.167Z,25.36
2022-07-30T12:39:25.933Z,25.4
2022-07-30T12:41:05.699Z,25.45
2022-07-30T12:42:45.455Z,25.46
2022-07-30T12:44:25.213Z,25.49
2022-07-30T12:47:44.748Z,25.59
2022-07-30T12:49:24.523Z,25.65
2022-07-30T12:51:04.278Z,25.68
2022-07-30T12:52:44.044Z,25.73
2022-07-30T12:54:23.807Z,25.79
2022-07-30T12:57:43.331Z,26
2022-07-30T12:59:23.094Z,26.15
2022-07-30T13:01:02.864Z,26.28
2022-07-30T13:02:42.630Z,26.44
2022-07-30T13:04:22.389Z,26.58
2022-07-30T13:06:02.162Z,26.72
2022-07-30T13:07:41.929Z,26.81
2022-07-30T13:09:21.696Z,26.87
2022-07-30T13:11:01.464Z,26.98
2022-07-30T13:12:41.206Z,26.96
2022-07-30T13:14:20.968Z,27.05
2022-07-30T13:16:00.729Z,27.06
2022-07-30T13:17:40.502Z,27.13
2022-07-30T13:19:20.271Z,27.09
2022-07-30T13:21:00.049Z,26.94
2022-07-30T13:22:39.790Z,26.84
2022-07-30T13:24:19.547Z,26.72
2022-07-30T13:27:39.093Z,26.6
2022-07-30T13:29:18.858Z,26.67
2022-07-30T13:30:58.623Z,26.79
2022-07-30T13:32:38.373Z,26.89
2022-07-30T13:34:18.157Z,26.98
2022-07-30T13:37:37.662Z,27.01
2022-07-30T13:39:17.437Z,27.07
2022-07-30T13:40:57.206Z,27.17
2022-07-30T13:42:36.976Z,27.34
2022-07-30T13:44:16.727Z,27.35
2022-07-30T13:47:36.271Z,27.33
2022-07-30T13:49:16.028Z,27.41
2022-07-30T13:50:55.787Z,27.46
2022-07-30T13:52:35.544Z,27.58
2022-07-30T13:54:15.311Z,27.74
2022-07-30T13:57:34.828Z,28.11
2022-07-30T13:59:14.607Z,28.33
2022-07-30T14:00:54.362Z,28.29
2022-07-30T14:02:34.133Z,28.2
2022-07-30T14:04:13.894Z,28.14
2022-07-30T14:05:53.681Z,28.16
2022-07-30T14:07:33.428Z,28.27
2022-07-30T14:09:13.189Z,28.42
2022-07-30T14:10:52.963Z,28.57
2022-07-30T14:12:32.723Z,28.69
2022-07-30T14:14:12.494Z,28.85
2022-07-30T14:15:52.249Z,28.92
2022-07-30T14:17:32.042Z,28.96
2022-07-30T14:19:11.784Z,28.99
2022-07-30T14:20:51.543Z,29.04
2022-07-30T14:22:31.305Z,29.11
2022-07-30T14:24:11.064Z,29.2
2022-07-30T14:25:50.849Z,29.22
2022-07-30T14:27:30.610Z,29.24
2022-07-30T14:29:10.363Z,29.31
2022-07-30T14:30:50.141Z,29.33
2022-07-30T14:32:29.895Z,29.39
2022-07-30T14:34:09.662Z,29.48
2022-07-30T14:35:49.431Z,29.33
2022-07-30T14:37:29.200Z,29.13
2022-07-30T14:40:48.710Z,28.91
2022-07-30T14:42:28.488Z,28.93
2022-07-30T14:44:08.250Z,28.97
2022-07-30T14:47:27.778Z,29.13
2022-07-30T14:50:47.316Z,29.09
2022-07-30T14:52:27.065Z,29.07
2022-07-30T14:54:06.843Z,29.08
2022-07-30T14:55:46.600Z,29.13
2022-07-30T14:57:26.377Z,29.19
2022-07-30T14:59:06.126Z,29.23
2022-07-30T15:00:45.917Z,29.23
2022-07-30T15:02:25.661Z,29.18
2022-07-30T15:04:05.421Z,29.15
2022-07-30T15:05:45.183Z,29.12
2022-07-30T15:07:24.979Z,29
2022-07-30T15:09:04.730Z,28.92
2022-07-30T15:10:44.488Z,28.77
2022-07-30T15:12:24.247Z,28.6
2022-07-30T15:14:04.030Z,28.5
2022-07-30T15:15:43.774Z,28.44
2022-07-30T15:17:23.532Z,28.41
2022-07-30T15:19:03.309Z,28.38
2022-07-30T15:20:43.067Z,28.34
2022-07-30T15:22:22.832Z,28.35
2022-07-30T15:24:02.595Z,28.32
2022-07-30T15:27:22.130Z,28.27
2022-07-30T15:29:01.893Z,28.2
2022-07-30T15:30:41.662Z,28.13
2022-07-30T15:32:21.419Z,28.05
2022-07-30T15:34:01.174Z,27.96
2022-07-30T15:37:20.712Z,27.78
2022-07-30T15:39:00.468Z,27.68
2022-07-30T15:40:40.248Z,27.6
2022-07-30T15:42:20.009Z,27.56
2022-07-30T15:43:59.777Z,27.5
2022-07-30T15:45:39.534Z,27.44
2022-07-30T15:47:19.300Z,27.38
2022-07-30T15:48:59.068Z,27.38
2022-07-30T15:50:38.836Z,27.4
2022-07-30T15:52:18.595Z,27.41
2022-07-30T15:53:58.350Z,27.42
2022-07-30T15:55:38.130Z,27.43
2022-07-30T15:57:17.885Z,27.42
2022-07-30T15:58:57.642Z,27.44
2022-07-30T16:00:37.411Z,27.41
2022-07-30T16:02:17.187Z,27.43
2022-07-30T16:03:56.944Z,27.42
2022-07-30T16:07:16.469Z,27.36
2022-07-30T16:08:56.237Z,27.31
2022-07-30T16:10:36.002Z,27.28
2022-07-30T16:12:15.760Z,27.24
2022-07-30T16:13:55.528Z,27.2
2022-07-30T16:15:35.298Z,27.16
2022-07-30T16:17:15.060Z,27.11
2022-07-30T16:18:54.836Z,27.07
2022-07-30T16:20:34.583Z,27.01
2022-07-30T16:22:14.338Z,26.96
2022-07-30T16:27:13.673Z,26.85
2022-07-30T16:28:53.397Z,26.82
2022-07-30T16:30:33.175Z,26.84
2022-07-30T16:32:12.934Z,26.84
2022-07-30T16:33:52.700Z,26.83
2022-07-30T16:37:12.233Z,26.82
2022-07-30T16:38:51.996Z,26.82
2022-07-30T16:40:31.760Z,26.79
2022-07-30T16:42:11.550Z,26.76
2022-07-30T16:43:51.293Z,26.75
2022-07-30T16:47:10.843Z,26.63
2022-07-30T16:48:50.589Z,26.51
2022-07-30T16:50:30.334Z,26.56
2022-07-30T16:52:10.103Z,26.54
2022-07-30T16:53:49.862Z,26.51
2022-07-30T16:57:09.404Z,26.46
2022-07-30T16:58:49.163Z,26.5
2022-07-30T17:00:28.925Z,26.45
2022-07-30T17:02:08.686Z,26.41
2022-07-30T17:03:48.460Z,26.37
2022-07-30T17:07:07.991Z,26.31
2022-07-30T17:08:47.742Z,26.25
2022-07-30T17:10:27.523Z,26.24
2022-07-30T17:12:07.282Z,26.18
2022-07-30T17:13:47.030Z,26.14
2022-07-30T17:17:06.575Z,26.08
2022-07-30T17:18:46.338Z,26
2022-07-30T17:20:26.097Z,25.99
2022-07-30T17:22:05.870Z,25.92
2022-07-30T17:23:45.615Z,25.94
2022-07-30T17:27:05.175Z,25.87
2022-07-30T17:28:44.911Z,25.85
2022-07-30T17:30:24.674Z,25.93
2022-07-30T17:32:04.452Z,25.78
2022-07-30T17:33:44.216Z,25.75
2022-07-30T17:37:03.746Z,25.7
2022-07-30T17:38:43.513Z,25.7
2022-07-30T17:40:23.265Z,25.65
2022-07-30T17:43:42.799Z,25.61
2022-07-30T17:45:22.559Z,25.59
2022-07-30T17:47:02.323Z,25.56
2022-07-30T17:48:42.087Z,25.55
2022-07-30T17:50:21.851Z,25.55
2022-07-30T17:52:01.653Z,25.57
2022-07-30T17:53:41.384Z,25.53
2022-07-30T17:55:21.142Z,25.53
2022-07-30T17:57:00.908Z,25.47
2022-07-30T17:58:40.682Z,25.44
2022-07-30T18:00:20.441Z,25.39
2022-07-30T18:02:00.194Z,25.36
2022-07-30T18:03:39.965Z,25.32
2022-07-30T18:06:59.497Z,25.22
2022-07-30T18:08:39.259Z,25.22
2022-07-30T18:10:19.016Z,25.15
2022-07-30T18:11:58.792Z,25.14
2022-07-30T18:13:38.558Z,25.06
2022-07-30T18:15:18.310Z,25
2022-07-30T18:16:58.070Z,24.93
2022-07-30T18:18:37.840Z,24.91
2022-07-30T18:20:17.604Z,24.84
2022-07-30T18:21:57.381Z,24.79
2022-07-30T18:23:37.138Z,24.75
2022-07-30T18:26:56.674Z,24.62
2022-07-30T18:28:36.417Z,24.6
2022-07-30T18:30:16.182Z,24.54
2022-07-30T18:31:55.960Z,24.5
2022-07-30T18:33:35.713Z,24.46
2022-07-30T18:35:15.484Z,24.38
2022-07-30T18:36:55.250Z,24.36
2022-07-30T18:38:35.016Z,24.3
2022-07-30T18:40:14.786Z,24.25
2022-07-30T18:41:54.542Z,24.23
2022-07-30T18:43:34.306Z,24.2
2022-07-30T18:45:14.069Z,24.21
2022-07-30T18:46:53.839Z,24.11
2022-07-30T18:48:33.600Z,24.06
2022-07-30T18:50:13.361Z,24.02
2022-07-30T18:51:53.124Z,23.96
2022-07-30T18:53:32.891Z,23.93
2022-07-30T18:55:12.663Z,23.88
2022-07-30T18:56:52.416Z,23.83
2022-07-30T18:58:32.186Z,23.77
2022-07-30T19:00:11.950Z,23.71
2022-07-30T19:01:51.728Z,23.66
2022-07-30T19:03:31.478Z,23.6
2022-07-30T19:06:51.000Z,23.52
2022-07-30T19:08:30.758Z,23.47
2022-07-30T19:10:10.553Z,23.43
2022-07-30T19:11:50.296Z,23.4
2022-07-30T19:13:30.059Z,23.39
2022-07-30T19:15:09.821Z,23.34
2022-07-30T19:16:49.591Z,23.3
2022-07-30T19:18:29.367Z,23.26
2022-07-30T19:20:09.118Z,23.22
2022-07-30T19:21:48.885Z,23.19
2022-07-30T19:23:28.658Z,23.14
2022-07-30T19:25:08.421Z,23.1
2022-07-30T19:26:48.167Z,23.05
2022-07-30T19:28:27.935Z,23
2022-07-30T19:30:07.708Z,22.97
2022-07-30T19:31:47.463Z,22.92
2022-07-30T19:33:27.241Z,22.89
2022-07-30T19:35:06.998Z,22.88
2022-07-30T19:36:46.789Z,22.85
2022-07-30T19:38:26.523Z,22.81
2022-07-30T19:40:06.332Z,22.76
2022-07-30T19:41:46.050Z,22.73
2022-07-30T19:43:25.849Z,22.69
2022-07-30T19:45:05.571Z,22.66
2022-07-30T19:46:45.346Z,22.63
2022-07-30T19:48:25.147Z,22.6
2022-07-30T19:50:04.863Z,22.56
2022-07-30T19:51:44.631Z,22.52
2022-07-30T19:53:24.398Z,22.55
2022-07-30T19:55:04.163Z,22.44
2022-07-30T19:56:43.936Z,22.4
2022-07-30T19:58:23.681Z,22.35
2022-07-30T20:00:03.464Z,22.3
2022-07-30T20:01:43.225Z,22.4
2022-07-30T20:03:22.991Z,22.22
2022-07-30T20:06:42.518Z,22.14
2022-07-30T20:08:22.270Z,22.1
2022-07-30T20:10:02.053Z,22.05
2022-07-30T20:11:41.813Z,22.01
2022-07-30T20:13:21.578Z,21.97
2022-07-30T20:15:01.322Z,21.93
2022-07-30T20:16:41.103Z,21.91
2022-07-30T20:18:20.861Z,21.86
2022-07-30T20:20:00.643Z,21.83
2022-07-30T20:21:40.396Z,21.79
2022-07-30T20:23:20.178Z,21.76
2022-07-30T20:26:39.730Z,21.66
2022-07-30T20:28:19.438Z,21.61
2022-07-30T20:29:59.247Z,21.56
2022-07-30T20:31:38.972Z,21.52
2022-07-30T20:33:18.728Z,21.48
2022-07-30T20:36:38.295Z,21.42
2022-07-30T20:38:18.046Z,21.33
2022-07-30T20:39:57.801Z,21.33
2022-07-30T20:41:37.549Z,21.31
2022-07-30T20:44:57.100Z,21.22
2022-07-30T20:46:36.835Z,21.17
2022-07-30T20:48:16.636Z,21.13
2022-07-30T20:49:56.368Z,21.07
2022-07-30T20:51:36.154Z,21.05
2022-07-30T20:53:15.902Z,21.01
2022-07-30T20:56:35.447Z,20.93
2022-07-30T20:58:15.233Z,20.91
2022-07-30T20:59:54.964Z,20.88
2022-07-30T21:01:34.745Z,20.85
2022-07-30T21:03:14.496Z,20.8
2022-07-30T21:04:54.251Z,20.75
2022-07-30T21:06:34.024Z,20.74
2022-07-30T21:08:13.767Z,20.72
2022-07-30T21:09:53.559Z,20.67
2022-07-30T21:11:33.315Z,20.65
2022-07-30T21:13:13.098Z,20.62
2022-07-30T21:14:52.851Z,20.64
2022-07-30T21:16:32.596Z,20.55
2022-07-30T21:18:12.400Z,20.49
2022-07-30T21:19:52.160Z,20.45
2022-07-30T21:21:31.883Z,20.44
2022-07-30T21:23:11.659Z,20.39
2022-07-30T21:26:31.192Z,20.33
2022-07-30T21:28:10.969Z,20.29
2022-07-30T21:29:50.787Z,20.26
2022-07-30T21:31:34.900Z,20.2
2022-07-30T21:33:10.277Z,20.17
2022-07-30T21:36:29.775Z,20.12
2022-07-30T21:38:09.534Z,20.04
2022-07-30T21:39:49.303Z,20.02
2022-07-30T21:41:29.067Z,19.99
2022-07-30T21:43:08.838Z,20.04
2022-07-30T21:44:48.592Z,19.92
2022-07-30T21:46:28.344Z,19.96
2022-07-30T21:48:08.125Z,19.87
2022-07-30T21:49:47.899Z,19.84
2022-07-30T21:51:27.642Z,19.82
2022-07-30T21:53:07.414Z,19.81
2022-07-30T21:56:26.964Z,19.7
2022-07-30T21:58:06.699Z,19.66
2022-07-30T21:59:46.487Z,19.64
2022-07-30T22:01:26.243Z,19.6
2022-07-30T22:03:06.030Z,19.57
2022-07-30T22:06:25.527Z,19.5
2022-07-30T22:08:05.286Z,19.46
2022-07-30T22:09:45.058Z,19.42
2022-07-30T22:11:24.815Z,19.4
2022-07-30T22:13:04.578Z,19.39
2022-07-30T22:16:24.121Z,19.32
2022-07-30T22:18:03.874Z,19.29
2022-07-30T22:19:43.638Z,19.24
2022-07-30T22:23:03.164Z,19.17
2022-07-30T22:24:42.928Z,19.15
2022-07-30T22:26:22.696Z,19.11
2022-07-30T22:28:02.451Z,19.1
2022-07-30T22:29:42.226Z,19.04
2022-07-30T22:31:21.997Z,19.08
2022-07-30T22:33:01.768Z,18.99
2022-07-30T22:34:41.528Z,18.96
2022-07-30T22:36:21.283Z,18.94
2022-07-30T22:38:01.038Z,18.91
2022-07-30T22:39:40.801Z,18.92
2022-07-30T22:41:20.574Z,18.87
2022-07-30T22:43:00.323Z,18.83
2022-07-30T22:46:19.872Z,18.79
2022-07-30T22:47:59.650Z,18.77
2022-07-30T22:49:39.373Z,18.74
2022-07-30T22:51:19.136Z,18.74
2022-07-30T22:52:58.918Z,18.7
2022-07-30T22:56:18.455Z,18.64
2022-07-30T22:57:58.229Z,18.61
2022-07-30T22:59:37.982Z,18.57
2022-07-30T23:01:17.765Z,18.54
2022-07-30T23:02:57.507Z,18.52
2022-07-30T23:06:17.026Z,18.43
2022-07-30T23:07:56.796Z,18.4
2022-07-30T23:09:36.548Z,18.37
2022-07-30T23:11:16.323Z,18.33
2022-07-30T23:12:56.085Z,18.29
2022-07-30T23:16:15.615Z,18.25
2022-07-30T23:17:55.367Z,18.25
2022-07-30T23:19:35.142Z,18.21
2022-07-30T23:21:14.895Z,18.18
2022-07-30T23:22:54.667Z,18.15
2022-07-30T23:24:34.426Z,18.11
2022-07-30T23:26:14.187Z,18.1
2022-07-30T23:27:53.943Z,18.08
2022-07-30T23:29:33.727Z,18.06
2022-07-30T23:31:13.518Z,18.04
2022-07-30T23:32:53.255Z,18.01
2022-07-30T23:36:12.780Z,17.95
2022-07-30T23:37:52.538Z,17.93
2022-07-30T23:39:32.306Z,17.9
2022-07-30T23:41:12.060Z,17.87
2022-07-30T23:42:51.838Z,17.83
2022-07-30T23:44:31.591Z,17.82
2022-07-30T23:46:11.359Z,17.78
2022-07-30T23:47:51.120Z,17.75
2022-07-30T23:49:30.882Z,17.71
2022-07-30T23:51:10.645Z,17.69
2022-07-30T23:52:50.421Z,17.64
2022-07-30T23:54:30.186Z,17.62
2022-07-30T23:56:09.944Z,17.61
2022-07-30T23:57:49.709Z,17.56
